createdAt,value
2019-05-07T00:02:02.876Z,77.10
2019-05-07T00:04:30.271Z,77.10
2019-05-07T00:06:56.621Z,76.60
2019-05-07T00:09:23.373Z,75.70
2019-05-07T00:11:49.761Z,75.70
2019-05-07T00:14:16.081Z,75.20
2019-05-07T00:16:42.426Z,75.60
2019-05-07T00:19:08.932Z,75.50
2019-05-07T00:21:35.153Z,75.40
2019-05-07T00:24:02.224Z,73.90
2019-05-07T00:26:31.940Z,73.90
2019-05-07T00:28:57.790Z,74.20
2019-05-07T00:31:24.017Z,75.00
2019-05-07T00:33:52.516Z,75.30
2019-05-07T00:36:23.186Z,75.70
2019-05-07T00:38:52.072Z,76.50
2019-05-07T00:41:22.923Z,77.40
2019-05-07T00:43:52.476Z,77.80
2019-05-07T00:46:22.592Z,78.00
2019-05-07T00:48:49.206Z,77.80
2019-05-07T00:51:33.396Z,77.70
2019-05-07T00:54:02.828Z,77.50
2019-05-07T00:56:29.229Z,77.20
2019-05-07T00:58:55.661Z,76.70
2019-05-07T01:01:22.760Z,76.30
2019-05-07T01:03:49.206Z,76.60
2019-05-07T01:06:15.529Z,76.70
2019-05-07T01:08:43.074Z,76.40
2019-05-07T01:11:11.067Z,77.00
2019-05-07T01:13:38.708Z,76.90
2019-05-07T01:16:05.012Z,77.80
2019-05-07T01:18:32.392Z,78.00
2019-05-07T01:20:59.023Z,78.10
2019-05-07T01:23:25.237Z,78.10
2019-05-07T01:25:52.584Z,78.00
2019-05-07T01:28:19.161Z,78.00
2019-05-07T01:30:45.375Z,78.00
2019-05-07T01:33:29.880Z,77.90
2019-05-07T01:36:07.128Z,78.10
2019-05-07T01:38:33.362Z,77.50
2019-05-07T01:41:02.881Z,77.40
2019-05-07T01:43:28.870Z,78.00
2019-05-07T01:45:55.094Z,78.30
2019-05-07T01:48:22.988Z,78.80
2019-05-07T01:50:49.638Z,79.20
2019-05-07T01:53:15.873Z,79.10
2019-05-07T01:55:42.848Z,78.20
2019-05-07T01:58:09.329Z,77.70
2019-05-07T02:00:35.753Z,77.20
2019-05-07T02:03:03.873Z,77.10
2019-05-07T02:05:34.805Z,77.40
2019-05-07T02:08:03.081Z,78.00
2019-05-07T02:10:40.140Z,78.30
2019-05-07T02:13:06.372Z,78.50
2019-05-07T02:15:32.633Z,79.50
2019-05-07T02:17:58.906Z,79.30
2019-05-07T02:20:25.142Z,79.20
2019-05-07T02:22:53.215Z,78.80
2019-05-07T02:25:19.674Z,78.50
2019-05-07T02:27:45.920Z,78.60
2019-05-07T02:30:14.792Z,78.50
2019-05-07T02:32:43.311Z,78.40
2019-05-07T02:35:08.806Z,78.20
2019-05-07T02:37:48.295Z,78.20
2019-05-07T02:40:07.451Z,77.20
2019-05-07T02:42:33.881Z,76.60
2019-05-07T02:45:13.344Z,76.30
2019-05-07T02:47:39.422Z,76.00
2019-05-07T02:50:08.343Z,75.90
2019-05-07T02:52:53.758Z,75.90
2019-05-07T02:55:24.558Z,75.70
2019-05-07T02:57:53.654Z,75.60
2019-05-07T03:00:19.631Z,75.60
2019-05-07T03:02:45.928Z,75.40
2019-05-07T03:05:13.808Z,75.40
2019-05-07T03:07:42.561Z,75.10
2019-05-07T03:10:08.295Z,74.50
2019-05-07T03:12:34.608Z,73.90
2019-05-07T03:15:04.126Z,73.80
2019-05-07T03:17:28.946Z,73.20
2019-05-07T03:19:56.557Z,72.50
2019-05-07T03:22:23.417Z,72.00
2019-05-07T03:24:52.983Z,71.70
2019-05-07T03:27:19.589Z,71.60
2019-05-07T03:29:53.199Z,71.40
2019-05-07T03:32:37.780Z,71.70
2019-05-07T03:35:07.816Z,72.40
2019-05-07T03:37:36.340Z,72.80
2019-05-07T03:40:05.279Z,73.00
2019-05-07T03:42:33.574Z,73.40
2019-05-07T03:45:13.687Z,74.50
2019-05-07T03:47:43.925Z,74.30
2019-05-07T03:50:14.626Z,73.80
2019-05-07T03:52:42.624Z,74.30
2019-05-07T03:55:08.010Z,74.60
2019-05-07T03:57:34.337Z,74.70
2019-05-07T04:00:03.949Z,74.10
2019-05-07T04:02:28.886Z,73.60
2019-05-07T04:04:55.106Z,75.60
2019-05-07T04:07:23.308Z,73.90
2019-05-07T04:09:49.352Z,73.00
2019-05-07T04:12:15.682Z,72.70
2019-05-07T04:14:43.281Z,72.70
2019-05-07T04:17:17.471Z,72.70
2019-05-07T04:19:37.749Z,73.00
2019-05-07T04:22:04.449Z,72.90
2019-05-07T04:24:33.398Z,73.40
2019-05-07T04:27:18.490Z,73.70
2019-05-07T04:29:44.833Z,73.10
2019-05-07T04:32:14.366Z,72.60
2019-05-07T04:35:03.574Z,72.50
2019-05-07T04:37:28.403Z,72.70
2019-05-07T04:39:54.758Z,72.90
2019-05-07T04:42:24.387Z,73.00
2019-05-07T04:44:49.852Z,73.60
2019-05-07T04:47:32.767Z,73.80
2019-05-07T04:49:46.249Z,72.10
2019-05-07T04:52:17.384Z,69.50
2019-05-07T04:54:44.724Z,67.50
2019-05-07T04:57:27.104Z,65.60
2019-05-07T04:59:55.017Z,63.10
2019-05-07T05:02:23.645Z,61.10
2019-05-07T05:04:49.880Z,59.40
2019-05-07T05:07:16.144Z,57.70
2019-05-07T05:09:42.754Z,55.80
2019-05-07T05:12:09.222Z,53.20
2019-05-07T05:14:35.450Z,52.00
2019-05-07T05:17:02.127Z,51.00
2019-05-07T05:19:28.518Z,49.10
2019-05-07T05:22:02.965Z,46.50
2019-05-07T05:24:34.139Z,46.70
2019-05-07T05:27:02.449Z,43.50
2019-05-07T05:29:28.470Z,41.10
2019-05-07T05:31:54.709Z,40.30
2019-05-07T05:34:22.292Z,39.90
2019-05-07T05:36:48.846Z,40.60
2019-05-07T05:39:15.199Z,40.10
2019-05-07T05:41:43.125Z,40.70
2019-05-07T05:44:11.924Z,41.70
2019-05-07T05:46:38.373Z,40.60
2019-05-07T05:49:04.594Z,39.20
2019-05-07T05:51:49.092Z,37.80
2019-05-07T05:54:23.209Z,37.90
2019-05-07T05:57:09.285Z,36.20
2019-05-07T05:59:49.326Z,36.80
2019-05-07T06:02:24.335Z,36.40
2019-05-07T06:04:58.058Z,37.10
2019-05-07T06:07:36.128Z,37.40
2019-05-07T06:10:17.853Z,37.30
2019-05-07T06:12:48.971Z,37.60
2019-05-07T06:15:22.205Z,38.10
2019-05-07T06:17:56.181Z,38.50
2019-05-07T06:20:32.065Z,38.10
2019-05-07T06:23:12.981Z,37.70
2019-05-07T06:25:39.919Z,37.70
2019-05-07T06:28:06.229Z,38.20
2019-05-07T06:30:33.833Z,36.90
2019-05-07T06:33:00.250Z,37.00
2019-05-07T06:35:26.469Z,36.40
2019-05-07T06:37:52.793Z,37.60
2019-05-07T06:40:32.118Z,36.50
2019-05-07T06:43:18.589Z,36.10
2019-05-07T06:45:46.710Z,35.80
2019-05-07T06:48:13.011Z,35.30
2019-05-07T06:50:43.205Z,35.20
2019-05-07T06:53:11.876Z,36.30
2019-05-07T06:55:38.505Z,34.30
2019-05-07T06:58:06.137Z,35.00
2019-05-07T07:00:43.262Z,34.80
2019-05-07T07:03:29.976Z,35.70
2019-05-07T07:05:58.113Z,35.20
2019-05-07T07:08:26.208Z,33.60
2019-05-07T07:11:02.528Z,33.10
2019-05-07T07:13:28.718Z,32.90
2019-05-07T07:15:54.941Z,32.60
2019-05-07T07:18:23.082Z,32.40
2019-05-07T07:20:49.301Z,32.90
2019-05-07T07:23:15.521Z,32.10
2019-05-07T07:25:43.006Z,31.90
2019-05-07T07:28:09.589Z,31.90
2019-05-07T07:30:43.553Z,30.80
2019-05-07T07:33:12.189Z,31.50
2019-05-07T07:35:38.693Z,32.80
2019-05-07T07:38:23.192Z,31.50
2019-05-07T07:40:52.734Z,30.90
2019-05-07T07:43:19.273Z,30.90
2019-05-07T07:45:45.499Z,32.20
2019-05-07T07:48:13.174Z,31.00
2019-05-07T07:50:42.008Z,31.30
2019-05-07T07:53:08.953Z,30.70
2019-05-07T07:55:37.080Z,30.30
2019-05-07T07:58:05.202Z,30.50
2019-05-07T08:00:39.441Z,31.00
2019-05-07T08:03:07.565Z,32.20
2019-05-07T08:05:33.721Z,33.30
2019-05-07T08:08:02.143Z,32.50
2019-05-07T08:10:28.073Z,31.70
2019-05-07T08:12:54.293Z,31.80
2019-05-07T08:15:24.139Z,31.00
2019-05-07T08:17:48.612Z,30.60
2019-05-07T08:20:16.344Z,30.40
2019-05-07T08:22:42.677Z,30.40
2019-05-07T08:25:09.193Z,30.50
2019-05-07T08:27:35.617Z,30.10
2019-05-07T08:30:04.765Z,32.40
2019-05-07T08:32:33.974Z,32.50
2019-05-07T08:35:04.645Z,30.00
2019-05-07T08:37:32.150Z,30.40
2019-05-07T08:39:58.756Z,30.00
2019-05-07T08:42:24.965Z,29.70
2019-05-07T08:45:05.121Z,32.30
2019-05-07T08:47:33.302Z,30.60
2019-05-07T08:49:59.509Z,28.50
2019-05-07T08:52:26.124Z,29.10
2019-05-07T08:54:52.554Z,29.30
2019-05-07T08:57:18.873Z,29.30
2019-05-07T08:59:57.435Z,32.30
2019-05-07T09:02:13.542Z,32.20
2019-05-07T09:04:52.812Z,31.60
2019-05-07T09:07:19.212Z,30.10
2019-05-07T09:09:45.429Z,28.90
2019-05-07T09:12:12.397Z,27.50
2019-05-07T09:14:38.887Z,30.20
2019-05-07T09:17:05.111Z,29.30
2019-05-07T09:19:32.241Z,28.30
2019-05-07T09:21:58.871Z,29.70
2019-05-07T09:24:25.197Z,28.50
2019-05-07T09:26:56.996Z,28.40
2019-05-07T09:29:27.962Z,30.10
2019-05-07T09:31:59.156Z,29.80
2019-05-07T09:34:36.205Z,27.90
2019-05-07T09:37:04.541Z,29.40
2019-05-07T09:39:32.406Z,29.30
2019-05-07T09:41:58.882Z,29.50
2019-05-07T09:44:25.113Z,28.70
2019-05-07T09:46:52.047Z,28.10
2019-05-07T09:49:19.613Z,28.20
2019-05-07T09:51:45.944Z,28.50
2019-05-07T09:54:12.753Z,26.90
2019-05-07T09:56:39.187Z,26.40
2019-05-07T09:59:05.653Z,26.80
2019-05-07T10:01:32.132Z,27.70
2019-05-07T10:03:58.500Z,28.70
2019-05-07T10:06:24.849Z,29.20
2019-05-07T10:08:53.447Z,27.90
2019-05-07T10:11:22.536Z,28.00
2019-05-07T10:13:57.092Z,29.10
2019-05-07T10:16:28.213Z,29.30
2019-05-07T10:19:14.307Z,29.60
2019-05-07T10:21:42.433Z,29.50
2019-05-07T10:24:09.021Z,27.50
2019-05-07T10:26:35.255Z,28.00
2019-05-07T10:29:02.178Z,29.40
2019-05-07T10:31:33.620Z,28.50
2019-05-07T10:34:00.104Z,29.00
2019-05-07T10:36:26.549Z,29.00
2019-05-07T10:38:53.090Z,28.60
2019-05-07T10:41:19.665Z,29.30
2019-05-07T10:43:48.056Z,27.60
2019-05-07T10:46:33.242Z,27.80
2019-05-07T10:49:07.825Z,28.40
2019-05-07T10:51:34.493Z,29.80
2019-05-07T10:54:02.248Z,29.50
2019-05-07T10:56:28.808Z,29.50
2019-05-07T10:58:55.171Z,30.00
2019-05-07T11:01:23.593Z,29.70
2019-05-07T11:03:51.738Z,29.00
2019-05-07T11:06:18.120Z,29.50
2019-05-07T11:08:44.456Z,28.70
2019-05-07T11:11:10.920Z,27.80
2019-05-07T11:13:37.310Z,28.80
2019-05-07T11:16:08.948Z,28.70
2019-05-07T11:18:39.792Z,28.20
2019-05-07T11:21:06.158Z,27.70
2019-05-07T11:23:32.847Z,27.60
2019-05-07T11:25:59.629Z,28.90
2019-05-07T11:28:26.076Z,28.90
2019-05-07T11:30:52.529Z,28.90
2019-05-07T11:33:18.914Z,28.10
2019-05-07T11:35:58.659Z,27.20
2019-05-07T11:38:25.183Z,28.30
2019-05-07T11:40:52.179Z,29.00
2019-05-07T11:43:22.972Z,27.70
2019-05-07T11:45:54.053Z,27.80
2019-05-07T11:48:22.121Z,28.30
2019-05-07T11:51:01.339Z,28.70
2019-05-07T11:53:22.050Z,28.00
2019-05-07T11:55:48.508Z,27.70
2019-05-07T11:58:14.944Z,27.00
2019-05-07T12:00:43.629Z,27.80
2019-05-07T12:03:10.280Z,28.20
2019-05-07T12:05:36.645Z,28.40
2019-05-07T12:08:03.329Z,28.60
2019-05-07T12:10:29.783Z,28.60
2019-05-07T12:12:59.636Z,28.30
2019-05-07T12:15:26.000Z,28.20
2019-05-07T12:17:52.355Z,28.80
2019-05-07T12:20:19.140Z,28.70
2019-05-07T12:22:45.542Z,28.60
2019-05-07T12:25:12.252Z,29.10
2019-05-07T12:27:38.752Z,29.60
2019-05-07T12:30:06.739Z,28.80
2019-05-07T12:32:42.734Z,27.90
2019-05-07T12:35:12.725Z,28.60
2019-05-07T12:37:39.011Z,27.70
2019-05-07T12:40:06.605Z,28.30
2019-05-07T12:42:33.057Z,28.60
2019-05-07T12:44:59.270Z,28.70
2019-05-07T12:47:25.546Z,29.20
2019-05-07T12:49:52.094Z,28.90
2019-05-07T12:52:20.220Z,29.10
2019-05-07T12:54:52.434Z,29.00
2019-05-07T12:57:18.875Z,28.80
2019-05-07T12:59:45.080Z,27.60
2019-05-07T13:02:37.946Z,27.60
2019-05-07T13:04:58.029Z,28.70
2019-05-07T13:07:26.289Z,28.90
2019-05-07T13:09:53.085Z,28.60
2019-05-07T13:12:21.620Z,28.70
2019-05-07T13:14:47.507Z,28.50
2019-05-07T13:17:13.745Z,28.70
2019-05-07T13:19:41.873Z,28.40
2019-05-07T13:22:08.078Z,28.00
2019-05-07T13:24:34.305Z,27.80
2019-05-07T13:27:00.537Z,28.80
2019-05-07T13:29:26.752Z,29.50
2019-05-07T13:31:54.435Z,29.10
2019-05-07T13:34:22.848Z,29.20
2019-05-07T13:36:54.605Z,29.10
2019-05-07T13:39:23.519Z,29.10
2019-05-07T13:41:54.796Z,29.10
2019-05-07T13:44:35.231Z,28.90
2019-05-07T13:47:21.900Z,29.40
2019-05-07T13:49:49.318Z,29.30
2019-05-07T13:52:15.531Z,29.70
2019-05-07T13:54:42.036Z,29.20
2019-05-07T13:57:08.504Z,29.00
2019-05-07T13:59:34.815Z,28.80
2019-05-07T14:02:05.057Z,28.70
2019-05-07T14:04:32.638Z,28.80
2019-05-07T14:07:01.915Z,28.70
2019-05-07T14:09:28.221Z,28.60
2019-05-07T14:11:54.540Z,28.20
2019-05-07T14:14:22.361Z,27.80
2019-05-07T14:16:49.584Z,28.00
2019-05-07T14:19:15.825Z,27.90
2019-05-07T14:21:42.331Z,28.30
2019-05-07T14:24:08.993Z,28.40
2019-05-07T14:26:35.221Z,26.90
2019-05-07T14:29:01.915Z,27.70
2019-05-07T14:31:28.373Z,28.60
2019-05-07T14:33:56.605Z,27.70
2019-05-07T14:36:42.502Z,27.60
2019-05-07T14:39:24.750Z,27.10
2019-05-07T14:41:52.217Z,27.50
2019-05-07T14:44:18.538Z,27.30
2019-05-07T14:46:50.933Z,26.80
2019-05-07T14:49:14.088Z,27.10
2019-05-07T14:51:40.429Z,27.20
2019-05-07T14:54:06.865Z,27.30
2019-05-07T14:56:33.805Z,27.70
2019-05-07T14:59:02.156Z,28.90
2019-05-07T15:01:28.468Z,28.40
2019-05-07T15:03:54.689Z,28.30
2019-05-07T15:06:21.886Z,28.60
2019-05-07T15:08:48.658Z,27.80
2019-05-07T15:11:14.865Z,28.10
2019-05-07T15:13:42.757Z,27.80
2019-05-07T15:16:09.121Z,28.20
2019-05-07T15:18:43.049Z,28.10
2019-05-07T15:21:12.219Z,29.10
2019-05-07T15:23:39.713Z,28.70
2019-05-07T15:26:06.040Z,28.50
2019-05-07T15:28:33.298Z,29.30
2019-05-07T15:31:02.956Z,29.60
2019-05-07T15:33:29.338Z,29.60
2019-05-07T15:35:55.779Z,30.10
2019-05-07T15:38:22.139Z,30.30
2019-05-07T15:40:48.473Z,29.80
2019-05-07T15:43:15.162Z,29.70
2019-05-07T15:45:41.465Z,29.00
2019-05-07T15:48:07.747Z,29.80
2019-05-07T15:50:34.016Z,29.90
2019-05-07T15:53:12.514Z,29.60
2019-05-07T15:55:38.770Z,30.10
2019-05-07T15:58:05.090Z,30.60
2019-05-07T16:00:33.605Z,31.00
2019-05-07T16:03:02.550Z,31.00
2019-05-07T16:05:29.069Z,30.40
2019-05-07T16:07:55.497Z,30.10
2019-05-07T16:10:23.268Z,30.60
2019-05-07T16:12:52.898Z,30.20
2019-05-07T16:15:18.821Z,29.80
2019-05-07T16:17:47.031Z,28.90
2019-05-07T16:20:14.303Z,28.80
2019-05-07T16:22:42.705Z,28.50
2019-05-07T16:25:08.916Z,29.30
2019-05-07T16:27:37.038Z,29.30
2019-05-07T16:30:06.221Z,28.60
2019-05-07T16:32:32.956Z,28.70
2019-05-07T16:34:59.278Z,29.30
2019-05-07T16:37:25.498Z,28.90
2019-05-07T16:39:52.733Z,29.00
2019-05-07T16:42:19.076Z,28.40
2019-05-07T16:44:45.297Z,28.40
2019-05-07T16:47:12.189Z,29.10
2019-05-07T16:49:38.713Z,29.00
2019-05-07T16:52:05.045Z,28.70
2019-05-07T16:54:31.278Z,29.00
2019-05-07T16:57:16.121Z,29.40
2019-05-07T16:59:42.843Z,30.00
2019-05-07T17:02:11.117Z,29.90
2019-05-07T17:04:39.204Z,29.90
2019-05-07T17:07:07.336Z,30.40
2019-05-07T17:09:35.276Z,29.80
2019-05-07T17:12:03.716Z,30.30
2019-05-07T17:14:29.873Z,30.10
2019-05-07T17:16:56.104Z,29.90
2019-05-07T17:19:22.552Z,29.30
2019-05-07T17:21:48.865Z,28.10
2019-05-07T17:24:15.106Z,28.30
2019-05-07T17:26:42.281Z,29.00
2019-05-07T17:29:08.769Z,28.20
2019-05-07T17:31:35.172Z,27.40
2019-05-07T17:34:02.261Z,27.50
2019-05-07T17:36:28.729Z,27.90
2019-05-07T17:38:54.947Z,27.80
2019-05-07T17:41:24.775Z,27.30
2019-05-07T17:43:49.330Z,27.20
2019-05-07T17:46:15.866Z,27.70
2019-05-07T17:48:42.828Z,28.50
2019-05-07T17:51:12.433Z,27.70
2019-05-07T17:53:38.841Z,27.20
2019-05-07T17:56:05.053Z,27.20
2019-05-07T17:58:32.521Z,26.90
2019-05-07T18:01:01.773Z,26.90
2019-05-07T18:03:32.229Z,27.30
2019-05-07T18:06:02.249Z,27.50
2019-05-07T18:08:28.569Z,27.50
2019-05-07T18:10:56.201Z,27.60
2019-05-07T18:13:22.532Z,28.20
2019-05-07T18:15:48.748Z,28.40
2019-05-07T18:18:15.729Z,28.80
2019-05-07T18:20:42.251Z,28.50
2019-05-07T18:23:13.318Z,28.90
2019-05-07T18:25:38.011Z,29.10
2019-05-07T18:28:04.336Z,29.70
2019-05-07T18:30:32.558Z,30.00
2019-05-07T18:33:15.702Z,31.00
2019-05-07T18:35:44.824Z,30.50
2019-05-07T18:38:11.045Z,30.70
2019-05-07T18:40:37.273Z,30.80
2019-05-07T18:43:03.708Z,30.90
2019-05-07T18:45:30.025Z,31.40
2019-05-07T18:47:56.257Z,31.70
2019-05-07T18:50:22.795Z,31.90
2019-05-07T18:52:49.263Z,31.60
2019-05-07T18:55:15.589Z,32.00
2019-05-07T18:57:42.167Z,31.90
2019-05-07T19:00:13.743Z,31.90
2019-05-07T19:02:40.087Z,32.10
2019-05-07T19:05:06.398Z,32.30
2019-05-07T19:07:32.718Z,32.60
2019-05-07T19:09:58.941Z,32.50
2019-05-07T19:12:27.104Z,33.00
2019-05-07T19:14:53.468Z,33.20
2019-05-07T19:17:21.828Z,33.80
2019-05-07T19:19:47.861Z,34.20
2019-05-07T19:22:14.075Z,34.40
2019-05-07T19:24:45.291Z,34.80
2019-05-07T19:27:08.701Z,35.00
2019-05-07T19:29:34.917Z,35.30
2019-05-07T19:32:03.184Z,35.40
2019-05-07T19:34:29.264Z,35.80
2019-05-07T19:36:55.499Z,35.90
2019-05-07T19:39:23.390Z,36.30
2019-05-07T19:41:49.865Z,36.70
2019-05-07T19:44:16.085Z,37.20
2019-05-07T19:46:42.309Z,38.00
2019-05-07T19:49:08.530Z,38.30
2019-05-07T19:51:34.748Z,38.70
2019-05-07T19:54:02.106Z,40.00
2019-05-07T19:56:29.069Z,40.40
2019-05-07T19:58:55.293Z,40.80
2019-05-07T20:01:26.322Z,41.20
2019-05-07T20:03:52.976Z,41.40
2019-05-07T20:06:19.345Z,41.00
2019-05-07T20:08:45.568Z,42.00
2019-05-07T20:11:26.013Z,42.40
2019-05-07T20:13:52.523Z,42.10
2019-05-07T20:16:19.787Z,42.50
2019-05-07T20:18:46.701Z,43.40
2019-05-07T20:21:13.065Z,43.50
2019-05-07T20:23:39.503Z,44.00
2019-05-07T20:26:05.817Z,43.70
2019-05-07T20:28:32.778Z,43.60
2019-05-07T20:30:59.223Z,43.70
2019-05-07T20:33:25.449Z,43.60
2019-05-07T20:35:52.614Z,43.70
2019-05-07T20:38:19.112Z,43.70
2019-05-07T20:40:45.327Z,44.80
2019-05-07T20:43:12.658Z,45.00
2019-05-07T20:45:39.445Z,45.00
2019-05-07T20:48:05.668Z,45.00
2019-05-07T20:50:33.290Z,45.20
2019-05-07T20:53:01.885Z,45.40
2019-05-07T20:55:46.260Z,45.30
2019-05-07T20:58:12.889Z,45.00
2019-05-07T21:00:39.213Z,45.50
2019-05-07T21:03:20.380Z,45.30
2019-05-07T21:05:48.340Z,46.00
2019-05-07T21:08:14.600Z,46.10
2019-05-07T21:10:42.670Z,46.90
2019-05-07T21:13:09.061Z,47.20
2019-05-07T21:15:35.395Z,47.00
2019-05-07T21:18:01.786Z,47.10
2019-05-07T21:20:28.133Z,47.10
2019-05-07T21:22:54.465Z,47.20
2019-05-07T21:25:22.576Z,47.50
2019-05-07T21:27:48.936Z,47.50
2019-05-07T21:30:17.563Z,47.30
2019-05-07T21:32:43.449Z,47.40
2019-05-07T21:35:09.869Z,47.60
2019-05-07T21:37:36.100Z,48.30
2019-05-07T21:40:04.675Z,48.50
2019-05-07T21:42:32.107Z,47.90
2019-05-07T21:44:58.520Z,47.90
2019-05-07T21:47:24.747Z,47.80
2019-05-07T21:49:54.816Z,48.30
2019-05-07T21:52:19.113Z,47.80
2019-05-07T21:54:47.253Z,47.50
2019-05-07T21:57:22.174Z,47.90
2019-05-07T21:59:52.091Z,48.20
2019-05-07T22:02:22.053Z,48.20
2019-05-07T22:04:48.607Z,48.00
2019-05-07T22:07:14.945Z,48.30
2019-05-07T22:09:41.268Z,48.30
2019-05-07T22:12:07.506Z,49.20
2019-05-07T22:14:33.729Z,49.50
2019-05-07T22:17:01.902Z,49.10
2019-05-07T22:19:28.044Z,50.70
2019-05-07T22:21:54.272Z,51.20
2019-05-07T22:24:22.391Z,51.40
2019-05-07T22:26:48.613Z,51.30
2019-05-07T22:29:14.841Z,51.30
2019-05-07T22:31:58.387Z,50.80
2019-05-07T22:34:26.645Z,51.40
2019-05-07T22:36:55.150Z,51.50
2019-05-07T22:39:41.491Z,51.00
2019-05-07T22:42:11.745Z,50.90
2019-05-07T22:44:37.682Z,50.80
2019-05-07T22:47:05.912Z,50.80
2019-05-07T22:49:33.360Z,51.50
2019-05-07T22:52:02.195Z,52.00
2019-05-07T22:54:27.877Z,52.10
2019-05-07T22:56:57.110Z,52.10
2019-05-07T22:59:23.329Z,53.10
2019-05-07T23:01:51.639Z,53.40
2019-05-07T23:04:17.690Z,53.50
2019-05-07T23:06:43.971Z,54.10
2019-05-07T23:09:10.305Z,54.70
2019-05-07T23:11:36.525Z,55.00
2019-05-07T23:14:02.842Z,55.50
2019-05-07T23:16:32.406Z,55.80
2019-05-07T23:18:58.310Z,55.80
2019-05-07T23:21:25.657Z,55.60
2019-05-07T23:23:52.755Z,56.00
2019-05-07T23:26:19.221Z,56.60
2019-05-07T23:28:45.454Z,55.00
2019-05-07T23:31:12.235Z,54.10
2019-05-07T23:33:38.801Z,57.10
2019-05-07T23:36:05.117Z,56.20
2019-05-07T23:38:31.930Z,57.10
2019-05-07T23:41:02.101Z,56.40
2019-05-07T23:43:28.399Z,56.40
2019-05-07T23:45:54.626Z,56.00
2019-05-07T23:48:22.724Z,56.50
2019-05-07T23:50:48.965Z,56.90
2019-05-07T23:53:15.210Z,57.40
2019-05-07T23:55:42.474Z,58.20
2019-05-07T23:58:08.858Z,57.30
